Time;durP1;ratioP1;P1;durP2;ratioP2;P2;SDS_P1;SDS_P2;PMS_P1;PMS_P2;Temp;Humidity;BMP_temperature;BMP_pressure;BME280_temperature;BME280_humidity;BME280_pressure;Samples;Min_cycle;Max_cycle;Signal;HPM_P1;HPM_P2
2023/04/10 04:55:55;;;;;;;24.70;19.60;;;14.70;63.00;;;;;;4881041;29;20112;-79
2023/04/10 04:58:22;;;;;;;26.40;17.35;;;14.70;63.50;;;;;;4882318;29;20044;-78
2023/04/10 05:00:48;;;;;;;24.95;17.90;;;14.70;63.70;;;;;;4881979;29;20073;-80
2023/04/10 05:03:14;;;;;;;28.60;18.55;;;14.70;64.50;;;;;;4882096;29;20456;-81
2023/04/10 05:05:56;;;;;;;28.77;18.33;;;14.80;64.80;;;;;;4851546;29;20064;-93
2023/04/10 05:08:22;;;;;;;35.22;18.10;;;14.80;64.30;;;;;;4882871;29;20053;-84
2023/04/10 05:10:51;;;;;;;35.03;19.15;;;14.90;64.40;;;;;;4881638;29;20483;-83
2023/04/10 05:13:16;;;;;;;36.38;18.08;;;15.00;64.90;;;;;;4867015;29;20089;-80
2023/04/10 05:15:43;;;;;;;37.50;18.42;;;15.10;64.80;;;;;;4882216;29;20499;-77
2023/04/10 05:18:12;;;;;;;37.50;16.40;;;15.20;64.90;;;;;;4883001;29;20085;-80
2023/04/10 05:20:39;;;;;;;34.25;15.65;;;15.20;65.10;;;;;;4866086;29;20104;-76
2023/04/10 05:23:05;;;;;;;37.33;15.77;;;15.20;65.00;;;;;;4883075;29;20092;-77
2023/04/10 05:25:30;;;;;;;34.95;14.70;;;15.30;65.20;;;;;;4866458;29;20085;-81
2023/04/10 05:27:56;;;;;;;34.92;15.07;;;15.30;65.40;;;;;;4866168;29;20045;-75
2023/04/10 05:30:22;;;;;;;34.83;15.15;;;15.30;65.70;;;;;;4882644;29;20047;-74
2023/04/10 05:32:47;;;;;;;30.85;13.43;;;15.30;66.40;;;;;;4866167;29;20476;-71
2023/04/10 05:35:13;;;;;;;37.10;12.52;;;15.30;66.10;;;;;;4882631;29;20052;-74
2023/04/10 05:37:39;;;;;;;25.73;12.15;;;15.40;66.00;;;;;;4882493;29;20416;-73
2023/04/10 05:40:06;;;;;;;32.05;11.68;;;15.40;66.00;;;;;;4882261;29;20131;-74
2023/04/10 05:42:31;;;;;;;28.33;11.80;;;15.40;66.80;;;;;;4882159;29;20350;-75
2023/04/10 05:44:57;;;;;;;28.55;12.00;;;15.40;66.50;;;;;;4882364;29;20064;-75
2023/04/10 05:47:23;;;;;;;41.72;11.35;;;15.50;66.80;;;;;;4881165;29;20045;-75
2023/04/10 05:49:48;;;;;;;31.23;9.90;;;15.50;67.00;;;;;;4882148;29;20052;-75
2023/04/10 05:52:14;;;;;;;31.13;10.05;;;15.60;67.30;;;;;;4882311;29;20049;-74
2023/04/10 05:54:40;;;;;;;29.30;11.13;;;15.60;67.60;;;;;;4892489;29;20155;-75
2023/04/10 05:57:05;;;;;;;46.17;12.88;;;15.70;67.60;;;;;;4900009;29;20056;-75
2023/04/10 05:59:31;;;;;;;31.15;9.80;;;15.80;67.50;;;;;;4899811;29;20479;-75
2023/04/10 06:01:57;;;;;;;33.75;10.43;;;15.90;67.60;;;;;;4900738;29;20127;-75
2023/04/10 06:04:23;;;;;;;24.95;10.20;;;16.00;67.60;;;;;;4900041;29;20367;-75
2023/04/10 06:06:49;;;;;;;25.45;9.60;;;16.00;67.60;;;;;;4899579;29;20456;-75
2023/04/10 06:09:15;;;;;;;22.85;9.48;;;16.00;67.60;;;;;;4899991;29;20046;-76
2023/04/10 06:11:41;;;;;;;25.90;9.88;;;16.00;67.60;;;;;;4900085;29;20137;-71
2023/04/10 06:14:06;;;;;;;30.55;9.57;;;16.10;67.60;;;;;;4899821;29;20133;-76
2023/04/10 06:16:32;;;;;;;21.02;9.13;;;16.10;67.50;;;;;;4899745;29;20427;-76
2023/04/10 06:18:58;;;;;;;20.92;9.07;;;16.20;67.60;;;;;;4899944;29;20100;-75
2023/04/10 06:21:25;;;;;;;34.85;10.52;;;16.20;67.60;;;;;;4900123;29;20052;-75
2023/04/10 06:23:51;;;;;;;23.38;9.30;;;16.20;67.70;;;;;;4900323;29;20049;-75
2023/04/10 06:26:16;;;;;;;22.77;8.98;;;16.20;67.70;;;;;;4900841;29;20055;-75
2023/04/10 06:28:43;;;;;;;22.75;8.75;;;16.20;67.80;;;;;;4900627;29;20359;-75
2023/04/10 06:31:09;;;;;;;23.55;7.97;;;16.20;67.70;;;;;;4900499;29;20381;-75
2023/04/10 06:33:35;;;;;;;25.23;8.35;;;16.20;67.80;;;;;;4900197;29;20124;-76
2023/04/10 06:36:01;;;;;;;23.35;8.77;;;16.20;67.90;;;;;;4900108;29;20056;-75
2023/04/10 06:38:27;;;;;;;24.77;8.30;;;16.20;67.70;;;;;;4900290;29;20367;-76
2023/04/10 06:40:52;;;;;;;17.13;8.73;;;16.10;67.90;;;;;;4899999;29;20044;-79
2023/04/10 06:43:18;;;;;;;23.90;8.38;;;16.10;67.90;;;;;;4899809;29;20380;-75
2023/04/10 06:45:50;;;;;;;27.05;8.05;;;16.10;68.00;;;;;;4899992;29;20095;-84
2023/04/10 06:48:16;;;;;;;33.88;8.05;;;16.10;68.20;;;;;;4899506;29;20131;-74
2023/04/10 06:50:42;;;;;;;24.27;8.57;;;16.10;68.30;;;;;;4895255;29;20360;-76
2023/04/10 06:53:08;;;;;;;32.05;9.18;;;16.10;68.20;;;;;;4886265;29;20052;-75
2023/04/10 06:55:36;;;;;;;33.17;9.20;;;16.10;68.30;;;;;;4898301;29;20128;-76
2023/04/10 06:58:02;;;;;;;29.40;8.65;;;16.10;68.40;;;;;;4900274;29;20064;-78
2023/04/10 07:00:29;;;;;;;27.60;9.27;;;16.10;68.50;;;;;;4881578;29;20075;-80
2023/04/10 07:02:55;;;;;;;36.15;8.65;;;16.10;68.40;;;;;;4864727;29;20052;-79
2023/04/10 07:05:21;;;;;;;28.70;9.27;;;16.10;68.40;;;;;;4896244;29;20119;-76
2023/04/10 07:07:49;;;;;;;31.15;8.82;;;16.10;68.60;;;;;;4899632;29;20052;-79
2023/04/10 07:10:15;;;;;;;26.98;7.47;;;16.10;68.80;;;;;;4899617;29;20075;-83
2023/04/10 07:12:42;;;;;;;24.02;7.88;;;16.20;68.80;;;;;;4881413;29;20129;-79
2023/04/10 07:15:09;;;;;;;28.02;8.23;;;16.10;68.50;;;;;;4865601;29;20045;-81
2023/04/10 07:17:35;;;;;;;24.02;8.40;;;16.10;68.40;;;;;;4881462;29;20052;-79
2023/04/10 07:20:01;;;;;;;34.08;8.13;;;16.20;68.40;;;;;;4864660;29;20045;-80
2023/04/10 07:22:26;;;;;;;27.65;8.13;;;16.20;68.50;;;;;;4848680;29;20045;-81
2023/04/10 07:24:55;;;;;;;28.92;7.90;;;16.20;68.50;;;;;;4864565;29;20193;-82
2023/04/10 07:27:22;;;;;;;22.95;7.50;;;16.20;68.50;;;;;;4864725;29;20141;-79
2023/04/10 07:29:47;;;;;;;35.95;9.13;;;16.20;68.10;;;;;;4864569;29;20089;-80
2023/04/10 07:32:13;;;;;;;26.85;7.95;;;16.20;68.50;;;;;;4879002;29;20056;-79
2023/04/10 07:34:40;;;;;;;26.95;7.63;;;16.20;68.30;;;;;;4890516;29;20088;-79
2023/04/10 07:37:06;;;;;;;29.63;7.97;;;16.20;67.90;;;;;;4865651;29;20144;-81
2023/04/10 07:39:32;;;;;;;21.85;7.65;;;16.20;67.80;;;;;;4864115;29;20431;-75
2023/04/10 07:41:58;;;;;;;37.90;8.85;;;16.20;67.70;;;;;;4880839;29;20056;-80
2023/04/10 07:44:25;;;;;;;32.17;8.70;;;16.20;67.90;;;;;;4866756;29;20533;-81
2023/04/10 07:46:51;;;;;;;28.98;8.10;;;16.20;67.80;;;;;;4849538;29;20063;-80
2023/04/10 07:49:17;;;;;;;32.88;8.57;;;16.20;67.70;;;;;;4883069;29;20461;-83
2023/04/10 07:51:43;;;;;;;34.72;8.68;;;16.20;67.70;;;;;;4875829;29;20056;-83
2023/04/10 07:54:12;;;;;;;35.42;9.05;;;16.20;67.60;;;;;;4868027;29;20060;-84
2023/04/10 07:56:38;;;;;;;31.77;8.50;;;16.30;67.70;;;;;;4867334;29;20052;-83
2023/04/10 07:59:04;;;;;;;25.92;7.28;;;16.30;67.60;;;;;;4882587;29;20104;-81
2023/04/10 08:01:30;;;;;;;26.90;7.03;;;16.30;67.60;;;;;;4866683;29;20072;-83
2023/04/10 08:03:56;;;;;;;32.72;8.75;;;16.30;67.50;;;;;;4883068;29;20079;-87
2023/04/10 08:06:21;;;;;;;27.58;8.25;;;16.30;67.50;;;;;;4872555;29;20480;-85
2023/04/10 08:08:47;;;;;;;24.85;8.18;;;16.30;67.40;;;;;;4859335;29;20487;-82
2023/04/10 08:11:33;;;;;;;22.40;7.82;;;16.30;67.40;;;;;;4867472;29;20100;-77
2023/04/10 08:14:04;;;;;;;23.15;8.40;;;16.30;67.40;;;;;;4882468;29;20063;-84
2023/04/10 08:17:14;;;;;;;28.08;8.50;;;16.30;67.40;;;;;;4828075;29;20379;-86
2023/04/10 08:19:46;;;;;;;29.25;8.38;;;16.30;67.30;;;;;;4882820;29;20044;-85
2023/04/10 08:22:14;;;;;;;26.60;8.35;;;16.30;67.40;;;;;;4866677;29;20056;-81
2023/04/10 08:24:41;;;;;;;26.17;7.82;;;16.20;67.40;;;;;;4870809;29;20150;-76
2023/04/10 08:27:08;;;;;;;31.40;9.00;;;16.20;67.30;;;;;;4885308;29;20453;-74
2023/04/10 08:29:34;;;;;;;26.05;10.02;;;16.20;67.10;;;;;;4885513;29;20045;-73
2023/04/10 08:31:59;;;;;;;21.08;9.07;;;16.20;66.10;;;;;;4882946;29;20368;-74
2023/04/10 08:34:26;;;;;;;21.80;8.80;;;16.20;65.80;;;;;;4899678;29;20048;-82
2023/04/10 08:36:56;;;;;;;27.50;10.15;;;16.20;65.30;;;;;;4869681;29;20124;-86
2023/04/10 08:39:22;;;;;;;22.48;10.40;;;16.20;64.60;;;;;;4867109;29;20053;-81
2023/04/10 08:42:11;;;;;;;20.90;9.32;;;16.20;64.90;;;;;;4883586;29;20127;-81
2023/04/10 08:44:36;;;;;;;36.63;9.80;;;16.20;65.10;;;;;;4866780;29;20511;-82
2023/04/10 08:47:04;;;;;;;26.25;9.88;;;16.10;65.40;;;;;;4867053;29;20429;-84
2023/04/10 08:49:53;;;;;;;30.33;10.68;;;16.10;65.70;;;;;;4866841;29;20081;-83
2023/04/10 08:52:24;;;;;;;32.60;10.43;;;16.10;65.60;;;;;;4867069;29;20052;-82
2023/04/10 08:54:54;;;;;;;19.33;9.30;;;16.20;65.20;;;;;;4878380;29;20064;-77
2023/04/10 08:57:21;;;;;;;27.42;10.30;;;16.10;63.90;;;;;;4900524;29;20052;-87
2023/04/10 08:59:50;;;;;;;24.65;10.23;;;16.10;64.60;;;;;;4883634;29;20112;-79
2023/04/10 09:02:19;;;;;;;27.92;10.07;;;16.10;64.90;;;;;;4901529;29;20405;-81
2023/04/10 09:04:53;;;;;;;23.88;9.48;;;16.10;65.10;;;;;;4892871;29;20095;-78
2023/04/10 09:07:20;;;;;;;29.08;9.98;;;16.10;65.40;;;;;;4870186;29;20059;-82
2023/04/10 09:09:45;;;;;;;38.25;10.65;;;16.10;65.20;;;;;;4885147;29;20048;-80
2023/04/10 09:12:13;;;;;;;41.53;10.80;;;16.10;65.00;;;;;;4901858;29;20049;-80
2023/04/10 09:14:40;;;;;;;37.22;9.82;;;16.20;65.80;;;;;;4869646;29;20087;-81
2023/04/10 09:17:16;;;;;;;33.15;11.40;;;16.20;65.30;;;;;;4885236;29;20477;-84
2023/04/10 09:19:44;;;;;;;40.45;10.80;;;16.20;65.40;;;;;;4884673;29;20056;-82
2023/04/10 09:22:11;;;;;;;35.33;9.63;;;16.20;65.30;;;;;;4869610;29;20044;-82
2023/04/10 09:24:38;;;;;;;25.17;8.30;;;16.20;65.40;;;;;;4884825;29;20048;-80
2023/04/10 09:27:05;;;;;;;25.83;9.93;;;16.30;65.40;;;;;;4901595;29;20127;-84
2023/04/10 09:29:47;;;;;;;25.67;8.60;;;16.20;64.80;;;;;;4901009;29;20455;-82
2023/04/10 09:32:24;;;;;;;26.67;8.82;;;16.20;64.00;;;;;;4901254;29;20040;-82
2023/04/10 09:34:56;;;;;;;27.85;8.90;;;16.20;63.90;;;;;;4901280;29;20044;-83
2023/04/10 09:37:21;;;;;;;24.25;8.95;;;16.20;63.70;;;;;;4869239;29;20051;-83
2023/04/10 09:39:47;;;;;;;24.75;8.40;;;16.20;63.60;;;;;;4884556;29;20373;-73
2023/04/10 09:42:14;;;;;;;23.95;9.68;;;16.20;63.50;;;;;;4901210;29;20115;-76
2023/04/10 09:44:40;;;;;;;21.73;8.60;;;16.20;63.50;;;;;;4901296;29;20071;-76
2023/04/10 09:47:20;;;;;;;15.27;8.65;;;16.20;63.50;;;;;;4901509;29;20189;-75
2023/04/10 09:49:54;;;;;;;17.83;8.48;;;16.20;63.20;;;;;;4883850;29;20046;-75
2023/04/10 09:52:25;;;;;;;12.70;7.85;;;16.20;62.80;;;;;;4901376;29;20048;-80
2023/04/10 09:54:52;;;;;;;15.48;7.00;;;16.20;62.30;;;;;;4901058;29;20056;-81
2023/04/10 09:57:19;;;;;;;15.80;7.82;;;16.20;62.00;;;;;;4884455;29;20059;-81
2023/04/10 09:59:49;;;;;;;19.52;7.75;;;16.20;62.10;;;;;;4900830;29;20048;-82
2023/04/10 10:02:16;;;;;;;24.58;8.45;;;16.20;62.20;;;;;;4869112;29;20462;-80
2023/04/10 10:04:45;;;;;;;31.70;9.43;;;16.20;62.20;;;;;;4884648;29;20044;-76
2023/04/10 10:07:15;;;;;;;38.53;8.65;;;16.20;62.20;;;;;;4899825;29;20366;-80
2023/04/10 10:09:43;;;;;;;32.75;9.13;;;16.20;62.20;;;;;;4899798;29;20380;-84
2023/04/10 10:12:10;;;;;;;30.67;9.48;;;16.20;62.20;;;;;;4884343;29;20046;-83
2023/04/10 10:15:00;;;;;;;31.30;9.65;;;16.20;62.30;;;;;;4883061;29;20047;-73
2023/04/10 10:17:33;;;;;;;30.77;10.70;;;16.20;62.60;;;;;;4887002;29;20080;-76
2023/04/10 10:20:10;;;;;;;30.13;10.10;;;16.20;62.30;;;;;;4900450;29;20056;-74
2023/04/10 10:22:36;;;;;;;15.85;9.55;;;16.20;62.10;;;;;;4900646;29;20401;-77
2023/04/10 10:25:03;;;;;;;18.58;9.70;;;16.10;59.70;;;;;;4914508;29;20049;-73
2023/04/10 10:27:36;;;;;;;20.77;9.13;;;16.00;59.60;;;;;;4899985;29;20128;-73
2023/04/10 10:30:11;;;;;;;15.70;9.32;;;16.10;59.50;;;;;;4900581;29;20494;-83
2023/04/10 10:32:38;;;;;;;21.02;9.43;;;16.10;60.00;;;;;;4899363;29;20127;-82
2023/04/10 10:35:06;;;;;;;23.90;8.63;;;16.10;59.60;;;;;;4883492;29;20059;-85
2023/04/10 10:37:35;;;;;;;16.52;8.88;;;16.10;59.70;;;;;;4883882;29;20050;-80
2023/04/10 10:40:21;;;;;;;19.80;8.57;;;16.10;59.40;;;;;;4900250;29;20048;-79
2023/04/10 10:42:56;;;;;;;12.98;8.23;;;16.10;60.20;;;;;;4883479;29;20523;-81
2023/04/10 10:45:31;;;;;;;31.33;10.80;;;16.10;61.20;;;;;;4899926;29;20108;-86
2023/04/10 10:47:58;;;;;;;33.75;10.73;;;16.10;62.20;;;;;;4900409;29;20420;-76
2023/04/10 10:50:23;;;;;;;20.10;9.35;;;16.10;62.30;;;;;;4899983;29;20117;-76
2023/04/10 10:52:54;;;;;;;21.55;9.35;;;16.10;63.00;;;;;;4900067;29;20044;-82
2023/04/10 10:55:23;;;;;;;28.10;9.20;;;16.10;63.20;;;;;;4894727;29;20065;-75
2023/04/10 10:57:53;;;;;;;30.35;10.35;;;16.20;64.00;;;;;;4881016;29;20056;-74
2023/04/10 11:00:24;;;;;;;28.60;9.93;;;16.20;63.60;;;;;;4881450;29;20053;-76
2023/04/10 11:03:07;;;;;;;29.33;9.70;;;16.20;64.70;;;;;;4881546;29;20632;-76
2023/04/10 11:05:54;;;;;;;20.58;9.13;;;16.20;66.20;;;;;;4886407;29;20045;-76
2023/04/10 11:08:31;;;;;;;23.70;7.57;;;16.20;67.30;;;;;;4900057;29;20448;-76
2023/04/10 11:11:07;;;;;;;30.42;8.27;;;16.20;66.90;;;;;;4899748;29;20170;-75
2023/04/10 11:13:34;;;;;;;17.80;7.70;;;16.20;66.50;;;;;;4883746;29;20119;-75
2023/04/10 11:16:02;;;;;;;23.50;8.60;;;16.20;66.50;;;;;;4881287;29;20429;-76
2023/04/10 11:18:46;;;;;;;21.08;7.55;;;16.30;66.70;;;;;;4877946;29;20532;-82
2023/04/10 11:21:16;;;;;;;26.40;7.85;;;16.30;66.80;;;;;;4883441;29;20059;-76
2023/04/10 11:23:54;;;;;;;31.95;8.30;;;16.30;66.90;;;;;;4884176;29;20056;-75
2023/04/10 11:26:35;;;;;;;23.48;7.72;;;16.30;67.00;;;;;;4885063;29;20200;-78
2023/04/10 11:29:25;;;;;;;29.55;7.70;;;16.30;67.00;;;;;;4885057;29;20436;-75
2023/04/10 11:31:59;;;;;;;25.80;8.77;;;16.30;67.10;;;;;;4894462;29;20475;-79
2023/04/10 11:34:32;;;;;;;30.55;7.72;;;16.30;67.30;;;;;;4897916;29;20049;-73
2023/04/10 11:37:01;;;;;;;34.38;8.23;;;16.30;67.20;;;;;;4884293;29;20068;-75
2023/04/10 11:39:27;;;;;;;28.75;8.23;;;16.40;67.40;;;;;;4876845;29;20041;-75
2023/04/10 11:41:56;;;;;;;32.00;7.93;;;16.30;67.60;;;;;;4884483;29;20071;-75
2023/04/10 11:44:34;;;;;;;27.02;7.40;;;16.30;67.80;;;;;;4884670;29;20479;-75
2023/04/10 11:47:00;;;;;;;24.70;7.43;;;16.40;68.10;;;;;;4881905;29;20124;-75
2023/04/10 11:49:29;;;;;;;29.63;7.32;;;16.30;68.20;;;;;;4884447;29;20037;-75
2023/04/10 11:51:55;;;;;;;34.85;7.38;;;16.30;68.10;;;;;;4884072;29;20111;-76
2023/04/10 11:54:23;;;;;;;32.97;8.63;;;16.40;68.30;;;;;;4892653;29;20135;-76
2023/04/10 11:57:03;;;;;;;41.20;9.13;;;16.40;67.80;;;;;;4903362;29;20052;-77
2023/04/10 11:59:31;;;;;;;24.50;8.60;;;16.40;67.20;;;;;;4903083;29;20059;-82
2023/04/10 12:02:13;;;;;;;30.50;9.20;;;16.40;66.20;;;;;;4903567;29;20080;-74
2023/04/10 12:04:40;;;;;;;31.83;8.38;;;16.40;65.40;;;;;;4902961;29;20064;-74
2023/04/10 12:07:06;;;;;;;30.98;8.15;;;16.40;65.10;;;;;;4903108;29;20060;-73
2023/04/10 12:09:32;;;;;;;18.20;6.82;;;16.40;65.00;;;;;;4903070;29;20048;-74
2023/04/10 12:12:07;;;;;;;30.33;8.18;;;16.40;64.80;;;;;;4903469;29;20417;-74
2023/04/10 12:14:40;;;;;;;21.20;7.75;;;16.30;64.40;;;;;;4903032;29;20041;-74
2023/04/10 12:17:08;;;;;;;18.40;6.90;;;16.30;64.40;;;;;;4903073;29;20092;-75
2023/04/10 12:19:34;;;;;;;15.55;6.55;;;16.30;64.60;;;;;;4886816;29;20036;-74
2023/04/10 12:22:01;;;;;;;23.85;6.97;;;16.30;64.70;;;;;;4902756;29;20040;-75
2023/04/10 12:24:51;;;;;;;20.35;6.13;;;16.30;64.70;;;;;;4903091;29;20048;-75
2023/04/10 12:27:27;;;;;;;19.58;6.15;;;16.30;64.50;;;;;;4884498;29;20053;-75
2023/04/10 12:29:55;;;;;;;15.98;6.32;;;16.30;64.60;;;;;;4884093;29;20189;-74
2023/04/10 12:32:22;;;;;;;12.70;6.18;;;16.30;64.60;;;;;;4883354;29;20456;-73
2023/04/10 12:34:52;;;;;;;19.70;6.18;;;16.30;64.30;;;;;;4883523;29;20045;-71
2023/04/10 12:37:18;;;;;;;19.58;6.68;;;16.30;64.40;;;;;;4883618;29;20053;-72
2023/04/10 12:39:44;;;;;;;18.17;6.55;;;16.30;64.40;;;;;;4892791;29;20076;-71
2023/04/10 12:42:21;;;;;;;18.25;7.03;;;16.30;64.30;;;;;;4901373;29;20049;-73
2023/04/10 12:44:58;;;;;;;17.55;5.80;;;16.40;63.90;;;;;;4901131;29;20131;-76
2023/04/10 12:47:26;;;;;;;17.75;6.72;;;16.40;63.20;;;;;;4901454;29;20104;-73
2023/04/10 12:50:13;;;;;;;16.67;6.43;;;16.40;62.70;;;;;;4901801;29;20133;-74
2023/04/10 12:53:00;;;;;;;15.02;6.70;;;16.40;62.40;;;;;;4902485;29;20045;-73
2023/04/10 12:55:27;;;;;;;17.45;6.78;;;16.40;62.20;;;;;;4899107;29;20375;-73
2023/04/10 12:58:14;;;;;;;15.18;6.40;;;16.40;61.70;;;;;;4899652;29;20475;-75
2023/04/10 13:00:40;;;;;;;17.10;6.68;;;16.40;61.60;;;;;;4901486;29;20482;-72
2023/04/10 13:03:06;;;;;;;18.98;6.93;;;16.40;61.60;;;;;;4900423;29;20041;-75
2023/04/10 13:05:31;;;;;;;10.77;6.75;;;16.40;61.20;;;;;;4908076;29;20048;-74
2023/04/10 13:07:57;;;;;;;14.38;6.38;;;16.40;60.80;;;;;;4905848;29;20076;-73
2023/04/10 13:10:23;;;;;;;15.27;6.05;;;16.40;62.90;;;;;;4899480;29;20044;-75
2023/04/10 13:12:49;;;;;;;11.77;4.75;;;16.40;64.70;;;;;;4901343;29;20111;-78
2023/04/10 13:15:15;;;;;;;10.80;4.88;;;16.50;63.10;;;;;;4900594;29;20044;-80
2023/04/10 13:17:41;;;;;;;11.18;5.32;;;16.50;62.30;;;;;;4884784;29;20456;-81
2023/04/10 13:20:09;;;;;;;10.77;4.93;;;16.50;62.40;;;;;;4884588;29;20045;-84
2023/04/10 13:22:35;;;;;;;7.25;4.90;;;16.50;62.50;;;;;;4899797;29;20028;-82
2023/04/10 13:25:03;;;;;;;11.15;4.63;;;16.50;62.50;;;;;;4869061;29;20037;-82
2023/04/10 13:27:29;;;;;;;12.52;5.10;;;16.50;62.80;;;;;;4899291;29;20460;-83
2023/04/10 13:30:28;;;;;;;7.15;4.72;;;16.50;63.00;;;;;;4900765;29;20116;-83
2023/04/10 13:33:38;;;;;;;7.72;4.13;;;16.40;63.10;;;;;;4884697;29;20048;-84
2023/04/10 13:36:26;;;;;;;14.43;4.50;;;16.50;63.30;;;;;;4883608;29;20045;-84
2023/04/10 13:42:18;;;;;;;11.20;4.38;;;16.50;63.80;;;;;;4865719;29;20068;-84
2023/04/10 13:45:16;;;;;;;11.48;4.60;;;16.40;63.80;;;;;;4880254;29;20119;-83
2023/04/10 13:47:42;;;;;;;7.07;3.83;;;16.40;63.90;;;;;;4884307;29;20098;-82
2023/04/10 13:50:08;;;;;;;8.93;4.22;;;16.50;64.00;;;;;;4883268;29;20116;-82
2023/04/10 13:52:34;;;;;;;10.35;4.22;;;16.50;64.10;;;;;;4883834;29;20523;-84
2023/04/10 13:55:00;;;;;;;7.35;3.60;;;16.50;64.30;;;;;;4898927;29;20049;-85
2023/04/10 13:57:25;;;;;;;11.60;3.75;;;16.40;64.30;;;;;;4883381;29;20048;-82
2023/04/10 13:59:56;;;;;;;9.90;3.75;;;16.40;64.40;;;;;;4898650;29;20479;-85
2023/04/10 14:02:30;;;;;;;11.88;4.30;;;16.40;64.50;;;;;;4896905;29;20036;-84
2023/04/10 14:04:58;;;;;;;12.90;3.97;;;16.40;64.60;;;;;;4899341;29;20420;-83
2023/04/10 14:07:24;;;;;;;11.27;4.30;;;16.40;64.60;;;;;;4898882;29;20444;-84
2023/04/10 14:09:50;;;;;;;6.20;3.75;;;16.40;64.70;;;;;;4899627;29;20044;-81
2023/04/10 14:12:16;;;;;;;7.72;3.95;;;16.40;64.80;;;;;;4884632;29;20184;-82
2023/04/10 14:14:43;;;;;;;11.07;4.40;;;16.40;64.90;;;;;;4884129;29;20049;-82
2023/04/10 14:17:08;;;;;;;13.07;4.22;;;16.50;65.10;;;;;;4884291;29;20047;-82
2023/04/10 14:19:35;;;;;;;12.77;4.85;;;16.50;65.20;;;;;;4899890;29;20029;-77
2023/04/10 14:22:29;;;;;;;12.02;4.80;;;16.50;65.10;;;;;;4883291;29;20514;-83
2023/04/10 14:25:00;;;;;;;13.45;4.63;;;16.40;64.70;;;;;;4898189;29;20391;-83
2023/04/10 14:27:30;;;;;;;22.08;4.68;;;16.40;65.10;;;;;;4899637;29;20481;-81
2023/04/10 14:30:14;;;;;;;13.27;4.47;;;16.40;65.20;;;;;;4898816;29;20102;-82
2023/04/10 14:32:43;;;;;;;20.77;5.50;;;16.40;65.40;;;;;;4899805;29;20044;-80
2023/04/10 14:35:09;;;;;;;16.73;5.50;;;16.40;65.90;;;;;;4899086;29;20079;-79
2023/04/10 14:37:38;;;;;;;19.13;5.13;;;16.40;66.00;;;;;;4899568;29;20060;-84
2023/04/10 14:40:07;;;;;;;29.30;4.97;;;16.40;66.20;;;;;;4883623;29;20131;-79
2023/04/10 14:42:33;;;;;;;13.63;5.95;;;16.40;66.40;;;;;;4899796;29;20048;-80
2023/04/10 14:45:56;;;;;;;18.23;4.65;;;16.40;66.50;;;;;;4899089;29;20052;-81
2023/04/10 14:48:22;;;;;;;21.77;5.47;;;16.40;66.20;;;;;;4897885;29;20044;-78
2023/04/10 14:50:51;;;;;;;23.42;5.18;;;16.40;66.20;;;;;;4882460;29;20119;-79
2023/04/10 14:53:16;;;;;;;21.13;6.75;;;16.40;66.20;;;;;;4899905;29;20052;-84
2023/04/10 14:55:42;;;;;;;32.53;6.15;;;16.40;66.20;;;;;;4880786;29;20357;-83
2023/04/10 14:58:11;;;;;;;25.50;5.75;;;16.40;66.30;;;;;;4879815;29;20118;-87
2023/04/10 15:00:37;;;;;;;27.55;6.20;;;16.40;66.40;;;;;;4879877;29;20048;-84
2023/04/10 15:03:04;;;;;;;24.20;5.03;;;16.50;66.50;;;;;;4864322;29;20408;-83
2023/04/10 15:05:30;;;;;;;27.23;5.50;;;16.50;66.50;;;;;;4879805;29;20073;-81
2023/04/10 15:07:56;;;;;;;29.85;5.78;;;16.50;66.60;;;;;;4882629;29;20052;-83
2023/04/10 15:10:22;;;;;;;32.97;6.25;;;16.50;66.60;;;;;;4882998;29;20040;-81
2023/04/10 15:12:50;;;;;;;21.27;5.32;;;16.60;66.70;;;;;;4849246;29;20067;-76
2023/04/10 15:15:17;;;;;;;25.92;5.13;;;16.60;66.70;;;;;;4880082;29;20048;-80
2023/04/10 15:17:43;;;;;;;23.58;5.57;;;16.60;67.00;;;;;;4864799;29;20092;-81
2023/04/10 15:20:09;;;;;;;25.25;5.22;;;16.60;67.20;;;;;;4880641;29;20088;-79
2023/04/10 15:22:35;;;;;;;27.40;5.85;;;16.70;67.60;;;;;;4879954;29;20524;-82
2023/04/10 15:25:00;;;;;;;30.65;5.40;;;16.70;67.80;;;;;;4865420;29;20156;-80
2023/04/10 15:27:26;;;;;;;29.15;5.03;;;16.80;68.00;;;;;;4864745;29;20053;-79
2023/04/10 15:29:52;;;;;;;30.40;5.85;;;16.80;68.10;;;;;;4864730;29;20049;-81
2023/04/10 15:32:18;;;;;;;26.40;4.82;;;16.80;68.10;;;;;;4880877;29;20084;-80
2023/04/10 15:34:44;;;;;;;22.73;5.18;;;16.80;68.20;;;;;;4865232;29;20057;-79
2023/04/10 15:37:10;;;;;;;25.02;5.82;;;16.90;68.40;;;;;;4864764;29;20049;-79
2023/04/10 15:39:36;;;;;;;21.80;5.38;;;16.80;68.40;;;;;;4864952;29;20053;-79
2023/04/10 15:42:04;;;;;;;27.83;5.53;;;16.80;68.50;;;;;;4880847;29;20059;-82
2023/04/10 15:44:30;;;;;;;24.67;4.68;;;16.80;68.50;;;;;;4849333;29;20045;-80
2023/04/10 15:46:56;;;;;;;26.83;5.93;;;16.90;68.50;;;;;;4864612;29;20084;-80
2023/04/10 15:49:22;;;;;;;15.75;4.63;;;16.80;68.50;;;;;;4864934;29;20088;-81
2023/04/10 15:51:47;;;;;;;21.90;5.32;;;16.90;68.60;;;;;;4864826;29;20049;-82
2023/04/10 15:54:13;;;;;;;35.75;5.47;;;16.80;68.60;;;;;;4868666;29;20057;-80
2023/04/10 15:56:39;;;;;;;19.05;5.03;;;16.80;68.80;;;;;;4895471;29;20449;-82
2023/04/10 15:59:08;;;;;;;17.98;5.72;;;16.80;68.80;;;;;;4879986;29;20500;-79
2023/04/10 16:01:37;;;;;;;28.88;5.10;;;16.80;68.80;;;;;;4885167;29;20132;-81
2023/04/10 16:04:05;;;;;;;24.75;4.80;;;16.80;69.00;;;;;;4880181;29;20418;-79
2023/04/10 16:07:27;;;;;;;;;;;;;;;;;;;;;
2023/04/10 16:10:17;;;;;;;26.88;4.93;;;16.80;68.80;;;;;;4869340;29;20049;-79
2023/04/10 16:12:43;;;;;;;38.20;6.13;;;16.70;68.90;;;;;;4852465;29;20049;-81
2023/04/10 16:15:09;;;;;;;26.13;5.50;;;16.70;69.10;;;;;;4884838;29;20057;-81
2023/04/10 16:17:34;;;;;;;26.20;5.40;;;16.70;69.20;;;;;;4868124;29;20041;-83
2023/04/10 16:20:06;;;;;;;25.00;4.85;;;16.70;69.30;;;;;;4868709;29;20472;-85
2023/04/10 16:22:32;;;;;;;16.65;4.30;;;16.70;69.60;;;;;;4867593;29;20056;-74
2023/04/10 16:24:59;;;;;;;23.75;6.28;;;16.70;69.50;;;;;;4884075;29;20045;-75
2023/04/10 16:27:25;;;;;;;25.83;5.57;;;16.70;69.30;;;;;;4884257;29;20060;-79
2023/04/10 16:29:51;;;;;;;25.92;5.88;;;16.70;69.10;;;;;;4887522;29;20052;-76
2023/04/10 16:32:20;;;;;;;27.33;5.93;;;16.70;69.00;;;;;;4882960;29;20069;-74
2023/04/10 16:34:46;;;;;;;16.23;5.43;;;16.60;68.80;;;;;;4884587;29;20051;-77
2023/04/10 16:37:12;;;;;;;16.45;5.57;;;16.60;68.70;;;;;;4883738;29;20063;-81
2023/04/10 19:37:56;;;;;;;6.95;1.98;;;16.10;67.20;;;;;;5816754;23;21261;-70
2023/04/10 19:40:22;;;;;;;10.68;2.08;;;16.10;67.10;;;;;;4937712;29;20049;-69
2023/04/10 19:42:48;;;;;;;5.28;2.15;;;16.10;67.20;;;;;;4939796;29;20051;-69
2023/04/10 19:45:14;;;;;;;13.15;2.33;;;16.00;67.10;;;;;;4958131;28;20042;-70
2023/04/10 19:47:40;;;;;;;8.05;2.10;;;16.00;67.10;;;;;;4948304;29;20465;-69
2023/04/10 19:50:06;;;;;;;9.35;2.35;;;16.00;67.20;;;;;;4960572;29;20050;-70
2023/04/10 19:52:32;;;;;;;5.70;2.03;;;16.00;67.20;;;;;;4960610;28;20434;-69
2023/04/10 19:54:58;;;;;;;7.78;2.20;;;16.00;67.10;;;;;;4960441;29;20120;-70
2023/04/10 19:57:23;;;;;;;5.25;2.38;;;16.00;67.20;;;;;;4960266;29;20051;-70
2023/04/10 19:59:50;;;;;;;5.43;2.08;;;15.90;67.10;;;;;;4960301;29;20426;-69
2023/04/10 20:02:16;;;;;;;4.15;2.20;;;15.90;67.20;;;;;;4959965;28;20493;-70
2023/04/10 20:04:42;;;;;;;6.05;2.03;;;15.90;67.20;;;;;;4960018;29;20369;-70
2023/04/10 20:07:08;;;;;;;6.20;2.30;;;15.90;67.20;;;;;;4957434;29;20054;-69
2023/04/10 20:09:33;;;;;;;5.72;2.03;;;15.90;67.10;;;;;;4956422;29;20524;-70
2023/04/10 20:11:59;;;;;;;5.53;2.92;;;15.90;67.20;;;;;;4951387;28;20464;-70
2023/04/10 20:14:25;;;;;;;7.25;2.50;;;15.90;67.20;;;;;;4954766;28;20481;-70
2023/04/10 20:16:51;;;;;;;8.18;2.78;;;15.80;67.20;;;;;;4947484;29;20063;-70
2023/04/10 20:19:16;;;;;;;9.10;3.10;;;15.80;67.20;;;;;;4941093;29;20040;-71
2023/04/10 20:21:42;;;;;;;7.25;2.72;;;15.70;67.20;;;;;;4943213;29;20035;-70
2023/04/10 20:24:08;;;;;;;9.45;3.17;;;15.70;67.30;;;;;;4952233;28;20047;-70
2023/04/10 20:26:33;;;;;;;10.02;2.97;;;15.70;67.40;;;;;;4949402;29;20086;-70
2023/04/10 20:28:59;;;;;;;7.70;2.97;;;15.70;67.40;;;;;;4959891;28;20047;-71
2023/04/10 20:31:25;;;;;;;7.78;3.30;;;15.70;67.40;;;;;;4939461;29;20476;-70
2023/04/10 20:33:53;;;;;;;7.60;3.25;;;15.60;67.40;;;;;;4953318;28;20047;-70
2023/04/10 20:36:19;;;;;;;8.85;3.10;;;15.60;67.40;;;;;;4938645;29;20070;-70
2023/04/10 20:38:44;;;;;;;5.80;2.63;;;15.70;67.50;;;;;;4947855;29;20098;-71
2023/04/10 20:41:10;;;;;;;6.63;2.50;;;15.60;67.40;;;;;;4950387;29;20075;-71
2023/04/10 20:43:36;;;;;;;7.97;2.92;;;15.60;67.40;;;;;;4949165;29;20040;-71
2023/04/10 20:46:03;;;;;;;6.78;2.70;;;15.60;67.40;;;;;;4945929;29;20039;-71
